Time;durP1;ratioP1;P1;durP2;ratioP2;P2;SDS_P1;SDS_P2;PMS_P1;PMS_P2;Temp;Humidity;BMP_temperature;BMP_pressure;BME280_temperature;BME280_humidity;BME280_pressure;Samples;Min_cycle;Max_cycle;Signal;HPM_P1;HPM_P2
2023/08/04 00:02:42;;;;;;;3.25;0.90;;;14.70;99.90;;;;;;8252208;28;20011;-80
2023/08/04 00:06:42;;;;;;;1.88;1.05;;;14.60;99.90;;;;;;8244346;28;20089;-80
2023/08/04 00:10:43;;;;;;;3.58;0.90;;;14.70;99.90;;;;;;8247140;28;20624;-80
2023/08/04 00:14:46;;;;;;;2.30;0.93;;;14.60;99.90;;;;;;8244139;28;20031;-79
2023/08/04 00:18:47;;;;;;;1.85;0.73;;;14.30;99.90;;;;;;8241892;28;20443;-79
2023/08/04 00:22:47;;;;;;;4.25;1.00;;;14.10;99.90;;;;;;8260760;28;20058;-80
2023/08/04 00:26:48;;;;;;;4.47;1.08;;;14.00;99.90;;;;;;8242815;28;20038;-80
2023/08/04 00:30:49;;;;;;;1.88;0.90;;;14.00;99.90;;;;;;8260210;28;20110;-80
2023/08/04 00:34:49;;;;;;;3.13;0.90;;;14.00;99.90;;;;;;8186721;29;20085;-80
2023/08/04 00:38:50;;;;;;;2.03;0.90;;;14.30;99.90;;;;;;8176073;28;20020;-79
2023/08/04 00:42:50;;;;;;;1.73;0.90;;;14.20;99.90;;;;;;8190575;29;20019;-78
2023/08/04 00:46:51;;;;;;;2.15;0.82;;;14.00;99.90;;;;;;8244339;28;20035;-80
2023/08/04 00:50:52;;;;;;;2.20;1.00;;;13.90;99.90;;;;;;8250577;28;20045;-80
2023/08/04 00:54:53;;;;;;;3.65;0.85;;;13.80;99.90;;;;;;8196255;28;20027;-80
2023/08/04 00:58:54;;;;;;;3.22;0.90;;;13.80;99.90;;;;;;8240708;28;20020;-79
2023/08/04 01:02:54;;;;;;;3.75;1.02;;;13.90;99.90;;;;;;8252768;28;20050;-79
2023/08/04 01:07:30;;;;;;;1.73;1.02;;;13.90;99.90;;;;;;8240708;28;20028;-80
2023/08/04 01:11:37;;;;;;;4.22;1.00;;;14.00;99.90;;;;;;8210161;28;20058;-80
2023/08/04 01:15:38;;;;;;;4.78;1.08;;;14.00;99.90;;;;;;8228987;28;20078;-79
2023/08/04 01:19:39;;;;;;;2.05;0.82;;;14.10;99.90;;;;;;8254380;28;20514;-80
2023/08/04 01:23:39;;;;;;;1.42;0.88;;;14.30;99.90;;;;;;8258259;28;20027;-79
2023/08/04 01:28:01;;;;;;;2.45;0.90;;;14.00;99.90;;;;;;8252770;28;20043;-80
2023/08/04 01:32:02;;;;;;;2.60;1.10;;;13.70;99.90;;;;;;8238000;28;20027;-79
2023/08/04 01:36:02;;;;;;;1.67;0.75;;;13.60;99.90;;;;;;8240013;28;20093;-78
2023/08/04 01:40:03;;;;;;;2.88;1.10;;;13.40;99.90;;;;;;8244088;28;20114;-80
2023/08/04 01:44:04;;;;;;;2.85;0.93;;;13.20;99.90;;;;;;8174511;28;20396;-78
2023/08/04 01:48:04;;;;;;;2.45;0.93;;;13.10;99.90;;;;;;8178858;28;20054;-79
2023/08/04 01:52:05;;;;;;;2.10;0.77;;;13.00;99.90;;;;;;8187274;28;20047;-79
2023/08/04 01:56:06;;;;;;;3.58;0.90;;;13.00;99.90;;;;;;8177203;28;20051;-79
2023/08/04 02:00:08;;;;;;;4.85;1.30;;;13.30;99.90;;;;;;8173757;28;20051;-79
2023/08/04 02:04:08;;;;;;;3.08;1.13;;;13.50;99.90;;;;;;8244092;28;20058;-79
2023/08/04 02:08:09;;;;;;;3.55;0.93;;;13.70;99.90;;;;;;8186920;28;20063;-78
2023/08/04 02:12:09;;;;;;;2.75;1.10;;;13.80;99.90;;;;;;8173283;28;20055;-79
2023/08/04 02:16:10;;;;;;;1.30;0.95;;;13.90;99.90;;;;;;8178537;28;20085;-79
2023/08/04 02:20:11;;;;;;;2.50;1.10;;;13.90;99.90;;;;;;8233038;28;20028;-79
2023/08/04 02:24:11;;;;;;;1.60;1.02;;;13.90;99.90;;;;;;8237277;28;20042;-79
2023/08/04 02:28:12;;;;;;;1.70;1.10;;;13.80;99.90;;;;;;8176337;28;20046;-79
2023/08/04 02:32:12;;;;;;;4.47;1.02;;;13.80;99.90;;;;;;8240821;28;20038;-79
2023/08/04 02:36:13;;;;;;;2.00;1.10;;;13.70;99.90;;;;;;8236444;28;20399;-80
2023/08/04 02:40:14;;;;;;;2.25;0.90;;;13.80;99.90;;;;;;8242015;28;20031;-79
2023/08/04 02:44:15;;;;;;;2.78;1.10;;;13.80;99.90;;;;;;8245749;28;20494;-80
2023/08/04 02:48:15;;;;;;;2.83;0.95;;;13.70;99.90;;;;;;8181764;29;20488;-78
2023/08/04 02:52:16;;;;;;;3.55;1.02;;;13.80;99.90;;;;;;8176614;28;20031;-80
2023/08/04 02:56:17;;;;;;;1.73;0.90;;;13.80;99.90;;;;;;8176461;28;20059;-80
2023/08/04 03:00:18;;;;;;;2.03;1.00;;;13.80;99.90;;;;;;8254008;28;20067;-79
2023/08/04 03:04:18;;;;;;;3.88;1.08;;;13.70;99.90;;;;;;8239759;28;20521;-79
2023/08/04 03:08:19;;;;;;;1.40;1.00;;;13.80;99.90;;;;;;8251442;28;20051;-79
2023/08/04 03:12:19;;;;;;;3.03;1.20;;;14.00;99.90;;;;;;8181700;28;20038;-79
2023/08/04 03:16:20;;;;;;;4.32;0.93;;;14.10;99.90;;;;;;8189451;29;20543;-78
2023/08/04 03:20:20;;;;;;;2.15;0.90;;;14.70;99.90;;;;;;8250658;28;20019;-78
2023/08/04 03:24:21;;;;;;;2.47;0.93;;;14.30;99.90;;;;;;8249867;28;20577;-78
2023/08/04 03:28:21;;;;;;;2.92;1.10;;;14.10;99.90;;;;;;8255601;28;20036;-79
2023/08/04 03:32:22;;;;;;;3.25;1.10;;;13.90;99.90;;;;;;8182701;28;20038;-79
2023/08/04 03:36:23;;;;;;;2.83;0.85;;;13.80;99.90;;;;;;8247826;28;20061;-79
2023/08/04 03:40:23;;;;;;;3.58;0.90;;;13.90;99.90;;;;;;8249496;28;20031;-79
2023/08/04 03:44:24;;;;;;;1.98;1.13;;;13.90;99.90;;;;;;8249886;28;20054;-79
2023/08/04 03:48:24;;;;;;;2.45;0.85;;;13.90;99.90;;;;;;8179859;28;20035;-79
2023/08/04 03:52:25;;;;;;;3.67;1.30;;;13.90;99.90;;;;;;8249572;28;20028;-79
2023/08/04 03:56:25;;;;;;;1.35;1.08;;;13.90;99.90;;;;;;8238766;28;20118;-79
2023/08/04 04:00:26;;;;;;;1.83;0.70;;;13.90;99.90;;;;;;8182934;28;20074;-79
2023/08/04 04:04:26;;;;;;;2.03;0.80;;;14.20;99.90;;;;;;8247946;28;20051;-79
2023/08/04 04:08:27;;;;;;;2.53;0.77;;;14.20;99.90;;;;;;8256669;28;20035;-79
2023/08/04 04:12:27;;;;;;;2.05;0.70;;;14.30;99.90;;;;;;8180144;28;20484;-79
2023/08/04 04:16:30;;;;;;;2.42;1.00;;;14.40;99.90;;;;;;8240726;28;20027;-79
2023/08/04 04:20:30;;;;;;;2.72;1.08;;;14.50;99.90;;;;;;8172354;28;20035;-80
2023/08/04 04:24:31;;;;;;;1.63;0.65;;;14.50;99.90;;;;;;8236527;28;20373;-78
2023/08/04 04:28:31;;;;;;;2.90;0.95;;;14.50;99.90;;;;;;8235280;28;20028;-79
2023/08/04 04:32:32;;;;;;;2.50;0.82;;;14.40;99.90;;;;;;8184064;28;20256;-79
2023/08/04 04:36:32;;;;;;;3.42;0.93;;;14.30;99.90;;;;;;8183829;28;20372;-79
2023/08/04 04:40:33;;;;;;;3.58;1.10;;;14.40;99.90;;;;;;8173986;28;20098;-79
2023/08/04 04:44:33;;;;;;;2.97;0.82;;;14.60;99.90;;;;;;8240250;28;20023;-79
2023/08/04 04:48:34;;;;;;;2.13;0.98;;;14.90;99.90;;;;;;8236868;28;20104;-79
2023/08/04 04:52:36;;;;;;;3.55;0.80;;;14.60;99.90;;;;;;8243378;28;20027;-78
2023/08/04 04:56:38;;;;;;;2.45;0.98;;;14.30;99.90;;;;;;8171901;28;20019;-79
2023/08/04 05:00:38;;;;;;;1.23;0.90;;;14.00;99.90;;;;;;8245557;28;20140;-79
2023/08/04 05:04:39;;;;;;;2.00;0.90;;;13.90;99.90;;;;;;8244807;28;20027;-79
2023/08/04 05:08:39;;;;;;;1.27;0.90;;;13.90;99.90;;;;;;8183666;28;20098;-78
2023/08/04 05:16:45;;;;;;;2.92;0.68;;;14.10;99.90;;;;;;8238469;28;20532;-81
2023/08/04 05:20:49;;;;;;;1.85;1.20;;;14.40;99.90;;;;;;8233071;28;20019;-82
2023/08/04 05:24:50;;;;;;;3.60;0.98;;;14.50;99.90;;;;;;8226614;28;20023;-81
2023/08/04 05:28:50;;;;;;;1.88;0.77;;;14.60;99.90;;;;;;8296002;28;20031;-79
2023/08/04 05:32:51;;;;;;;1.67;0.82;;;14.80;99.90;;;;;;8230692;28;20038;-79
2023/08/04 05:36:51;;;;;;;2.50;0.85;;;15.20;99.90;;;;;;8232781;28;20035;-79
2023/08/04 05:40:53;;;;;;;2.95;1.00;;;15.30;99.90;;;;;;8297183;28;20026;-79
2023/08/04 05:44:54;;;;;;;0.85;0.70;;;15.90;99.90;;;;;;8294144;28;20114;-78
2023/08/04 05:48:54;;;;;;;1.70;0.82;;;15.80;99.90;;;;;;8232205;28;20035;-79
2023/08/04 05:52:56;;;;;;;1.27;0.70;;;16.20;99.90;;;;;;8297004;28;20444;-79
2023/08/04 05:56:56;;;;;;;1.90;0.80;;;16.30;99.90;;;;;;8229886;28;20511;-79
2023/08/04 06:00:57;;;;;;;2.30;0.80;;;16.60;99.90;;;;;;8229770;28;20034;-79
2023/08/04 06:04:57;;;;;;;1.40;0.65;;;17.90;99.90;;;;;;8302259;28;20374;-79
2023/08/04 06:08:58;;;;;;;2.15;0.70;;;19.40;99.90;;;;;;8297755;28;20031;-79
2023/08/04 06:13:00;;;;;;;1.17;0.57;;;20.00;99.90;;;;;;8227554;28;20128;-80
2023/08/04 06:17:00;;;;;;;1.02;0.50;;;19.70;99.90;;;;;;8231886;28;20035;-80
2023/08/04 06:21:01;;;;;;;0.77;0.60;;;19.10;99.90;;;;;;8297820;28;20067;-79
2023/08/04 06:25:05;;;;;;;2.40;0.90;;;18.80;99.90;;;;;;8294540;28;20027;-80
2023/08/04 06:29:06;;;;;;;2.47;0.60;;;18.80;99.90;;;;;;8293903;28;20117;-79
2023/08/04 06:33:06;;;;;;;1.13;0.52;;;19.10;99.90;;;;;;8284771;28;20030;-79
2023/08/04 06:37:07;;;;;;;0.70;0.50;;;20.40;99.90;;;;;;8224423;28;20033;-79
2023/08/04 06:41:07;;;;;;;0.70;0.43;;;21.00;99.90;;;;;;8228883;28;20027;-80
2023/08/04 06:45:08;;;;;;;0.90;0.40;;;21.50;99.90;;;;;;8295928;28;20027;-80
2023/08/04 06:49:08;;;;;;;1.67;0.55;;;22.40;99.90;;;;;;8295310;28;20034;-78
2023/08/04 06:53:10;;;;;;;0.85;0.40;;;23.70;99.90;;;;;;8230223;28;20030;-79
2023/08/04 06:57:10;;;;;;;0.73;0.40;;;24.80;99.90;;;;;;8224241;28;20041;-79
2023/08/04 07:01:11;;;;;;;0.65;0.43;;;24.90;99.90;;;;;;8301163;28;20022;-80
2023/08/04 07:05:11;;;;;;;1.67;0.70;;;24.60;99.90;;;;;;8298272;28;20027;-79
2023/08/04 07:09:12;;;;;;;2.03;0.65;;;24.70;99.90;;;;;;8229745;28;20034;-80
2023/08/04 07:13:12;;;;;;;2.05;0.70;;;24.70;99.90;;;;;;8296433;28;20031;-79
2023/08/04 07:17:13;;;;;;;1.40;0.70;;;25.00;99.90;;;;;;8300968;28;20027;-79
2023/08/04 07:21:14;;;;;;;0.98;0.52;;;24.40;99.90;;;;;;8294205;28;20031;-80
2023/08/04 07:25:14;;;;;;;1.88;0.70;;;24.60;99.90;;;;;;8225631;28;20403;-80
2023/08/04 07:29:15;;;;;;;1.40;0.65;;;25.00;99.90;;;;;;8296422;28;20031;-80
2023/08/04 07:33:15;;;;;;;2.20;0.68;;;24.80;99.90;;;;;;8293197;28;20122;-80
2023/08/04 07:37:16;;;;;;;1.45;0.60;;;25.30;99.90;;;;;;8294022;28;20092;-79
2023/08/04 07:41:18;;;;;;;1.30;0.70;;;25.60;99.90;;;;;;8226180;28;20106;-79
2023/08/04 07:45:19;;;;;;;0.93;0.50;;;25.30;99.90;;;;;;8296464;28;20031;-79
2023/08/04 07:49:19;;;;;;;0.73;0.60;;;25.40;99.90;;;;;;8299654;28;20088;-79
2023/08/04 07:53:20;;;;;;;1.15;0.60;;;25.70;99.90;;;;;;8301132;28;20157;-79
2023/08/04 07:57:20;;;;;;;1.73;0.70;;;25.80;99.90;;;;;;8225201;28;20031;-80
2023/08/04 08:01:21;;;;;;;1.48;0.60;;;25.70;99.90;;;;;;8231089;28;20051;-79
2023/08/04 08:05:22;;;;;;;2.47;0.60;;;25.80;99.90;;;;;;8303408;28;20034;-79
2023/08/04 08:09:22;;;;;;;2.20;0.65;;;24.60;99.90;;;;;;8301362;28;20027;-80
2023/08/04 08:13:23;;;;;;;2.75;0.75;;;24.00;99.90;;;;;;8293959;28;20042;-79
2023/08/04 08:17:23;;;;;;;1.25;0.43;;;23.90;99.90;;;;;;8326689;28;20021;-79
2023/08/04 08:21:24;;;;;;;2.25;0.77;;;24.40;99.90;;;;;;8299152;28;20019;-80
2023/08/04 08:25:24;;;;;;;1.00;0.50;;;24.90;99.90;;;;;;8299206;28;20119;-79
2023/08/04 08:29:25;;;;;;;0.93;0.57;;;25.40;99.90;;;;;;8297788;28;20042;-79
2023/08/04 08:33:26;;;;;;;2.13;0.70;;;25.20;99.90;;;;;;8299836;28;20525;-79
2023/08/04 08:37:27;;;;;;;1.98;0.80;;;25.10;99.90;;;;;;8298346;28;20078;-79
2023/08/04 08:41:27;;;;;;;2.35;0.70;;;25.20;99.90;;;;;;8230087;28;20030;-80
2023/08/04 08:45:28;;;;;;;2.47;0.82;;;25.40;99.90;;;;;;8297566;28;20122;-80
2023/08/04 08:49:44;;;;;;;1.70;0.68;;;25.30;99.90;;;;;;8299579;28;20033;-80
2023/08/04 08:53:47;;;;;;;1.50;0.70;;;25.30;99.90;;;;;;8300343;28;20023;-82
2023/08/04 08:57:49;;;;;;;1.55;0.70;;;25.20;99.90;;;;;;8233474;28;20294;-82
2023/08/04 09:01:49;;;;;;;1.90;0.60;;;25.80;99.90;;;;;;8299849;28;20027;-80
2023/08/04 09:05:50;;;;;;;1.67;0.60;;;26.30;99.90;;;;;;8303663;28;20526;-79
2023/08/04 09:09:50;;;;;;;0.80;0.50;;;27.00;99.90;;;;;;8233283;28;20019;-79
2023/08/04 09:13:51;;;;;;;1.65;0.70;;;27.10;99.90;;;;;;8298918;28;20031;-79
2023/08/04 09:17:51;;;;;;;2.92;0.52;;;25.90;99.90;;;;;;8229486;28;20081;-82
2023/08/04 09:21:57;;;;;;;1.17;0.50;;;24.80;99.90;;;;;;8297087;28;20018;-82
2023/08/04 09:25:58;;;;;;;1.10;0.50;;;23.30;99.90;;;;;;8231069;28;20062;-82
2023/08/04 09:30:04;;;;;;;2.60;0.90;;;22.10;99.90;;;;;;8299309;28;20026;-81
2023/08/04 09:34:05;;;;;;;1.25;0.68;;;21.50;99.90;;;;;;8297647;28;20050;-80
2023/08/04 09:38:07;;;;;;;1.48;0.73;;;20.90;99.90;;;;;;8232264;28;20022;-80
2023/08/04 09:42:07;;;;;;;1.92;1.13;;;20.30;99.90;;;;;;8226835;28;20023;-81
2023/08/04 09:46:08;;;;;;;2.30;0.57;;;19.70;99.90;;;;;;8229621;28;20035;-81
2023/08/04 09:50:10;;;;;;;0.77;0.50;;;19.60;99.90;;;;;;8296794;28;20406;-81
2023/08/04 09:54:10;;;;;;;3.63;0.70;;;20.00;99.90;;;;;;8296575;28;20498;-81
2023/08/04 09:58:11;;;;;;;0.95;0.50;;;20.30;99.90;;;;;;8294476;28;20049;-81
2023/08/04 10:02:14;;;;;;;1.58;0.63;;;20.60;99.90;;;;;;8271032;28;20066;-80
2023/08/04 10:06:15;;;;;;;2.17;0.70;;;21.00;99.90;;;;;;8300288;28;20027;-81
2023/08/04 10:10:17;;;;;;;1.58;0.60;;;21.50;99.90;;;;;;8295004;28;20027;-82
2023/08/04 10:14:18;;;;;;;1.55;0.55;;;22.00;99.90;;;;;;8293543;28;20034;-82
2023/08/04 10:18:18;;;;;;;1.52;0.50;;;22.30;99.90;;;;;;8225935;28;20170;-80
2023/08/04 10:22:20;;;;;;;2.10;0.60;;;22.40;99.90;;;;;;8230335;28;20496;-81
2023/08/04 10:26:21;;;;;;;0.93;0.50;;;22.60;99.90;;;;;;8293663;28;20027;-82
2023/08/04 10:30:24;;;;;;;0.93;0.35;;;22.50;99.90;;;;;;8230342;28;20038;-82
2023/08/04 10:34:25;;;;;;;3.78;3.00;;;22.30;99.90;;;;;;8228675;28;20478;-82
2023/08/04 10:38:35;;;;;;;1.42;0.75;;;23.00;99.90;;;;;;8290400;28;20027;-82
2023/08/04 10:43:06;;;;;;;2.50;0.60;;;23.50;99.90;;;;;;8296705;28;20252;-81
2023/08/04 10:47:06;;;;;;;1.00;0.63;;;24.10;99.90;;;;;;8229644;28;20026;-82
2023/08/04 10:51:08;;;;;;;2.17;0.70;;;24.80;99.90;;;;;;8291352;28;20062;-82
2023/08/04 10:55:13;;;;;;;2.45;0.52;;;25.40;99.90;;;;;;8226890;28;20539;-79
2023/08/04 10:59:14;;;;;;;3.47;0.60;;;26.10;99.90;;;;;;8296134;28;20388;-80
2023/08/04 11:03:29;;;;;;;2.03;0.60;;;27.20;99.90;;;;;;8298909;28;20023;-80
2023/08/04 11:07:29;;;;;;;1.00;0.50;;;28.10;99.90;;;;;;8229859;28;20109;-79
2023/08/04 11:11:30;;;;;;;1.70;0.65;;;29.30;98.00;;;;;;8229268;28;20027;-80
2023/08/04 11:15:42;;;;;;;1.45;0.57;;;30.20;93.30;;;;;;8317502;22;20055;-79
2023/08/04 11:19:43;;;;;;;1.00;0.55;;;30.50;95.60;;;;;;8236343;28;20509;-79
2023/08/04 11:23:44;;;;;;;1.60;0.45;;;30.90;91.20;;;;;;8291300;28;20427;-79
2023/08/04 11:27:45;;;;;;;1.40;0.40;;;29.80;90.20;;;;;;8202295;28;20022;-79
2023/08/04 11:31:47;;;;;;;0.90;0.50;;;27.90;92.00;;;;;;8217270;28;20038;-80
2023/08/04 11:35:48;;;;;;;0.88;0.40;;;26.90;94.40;;;;;;8295216;28;20027;-79
2023/08/04 11:39:48;;;;;;;1.05;0.50;;;27.00;93.80;;;;;;8211676;28;20054;-79
2023/08/04 11:43:49;;;;;;;1.92;0.70;;;27.00;94.90;;;;;;8275337;28;20020;-79
2023/08/04 11:47:50;;;;;;;1.42;0.50;;;27.60;92.70;;;;;;8272373;28;20069;-79
2023/08/04 11:51:51;;;;;;;1.10;0.47;;;28.20;92.60;;;;;;8277287;28;20103;-79
2023/08/04 11:56:07;;;;;;;1.23;0.50;;;28.40;90.60;;;;;;8223547;28;20380;-79
2023/08/04 12:00:09;;;;;;;1.33;0.47;;;28.70;91.40;;;;;;8288047;28;20019;-80
2023/08/04 12:04:20;;;;;;;2.28;0.60;;;28.40;91.30;;;;;;8282672;28;20070;-80
2023/08/04 12:08:20;;;;;;;2.80;0.70;;;28.90;91.50;;;;;;8220394;28;20039;-80
2023/08/04 12:12:41;;;;;;;2.28;0.50;;;28.60;93.00;;;;;;8278530;28;20031;-78
2023/08/04 12:16:55;;;;;;;5.07;1.25;;;28.00;90.80;;;;;;8291689;28;20391;-79
2023/08/04 12:20:57;;;;;;;1.55;0.65;;;27.40;93.30;;;;;;8223684;28;20110;-79
2023/08/04 12:24:57;;;;;;;12.40;3.20;;;27.00;95.10;;;;;;8289242;28;20349;-79
2023/08/04 12:28:58;;;;;;;8.45;2.17;;;26.50;95.10;;;;;;8297412;28;20125;-79
2023/08/04 12:32:58;;;;;;;3.55;1.10;;;25.70;95.00;;;;;;8290676;28;20027;-79
2023/08/04 12:36:59;;;;;;;12.50;3.05;;;24.70;97.40;;;;;;8289716;28;20417;-79
2023/08/04 12:40:59;;;;;;;2.75;0.68;;;24.30;99.90;;;;;;8291425;28;20034;-79
2023/08/04 12:45:00;;;;;;;1.33;0.75;;;24.20;99.70;;;;;;8285955;28;20043;-79
2023/08/04 12:49:00;;;;;;;1.23;0.50;;;24.90;97.30;;;;;;8222246;28;20023;-79
2023/08/04 12:53:01;;;;;;;2.03;0.60;;;25.00;97.20;;;;;;8289830;28;20494;-79
2023/08/04 12:57:02;;;;;;;1.65;0.55;;;24.90;99.80;;;;;;8288824;28;20035;-79
2023/08/04 13:01:02;;;;;;;1.02;0.50;;;25.30;94.10;;;;;;8283183;28;20027;-79
2023/08/04 13:05:03;;;;;;;2.08;0.60;;;25.10;96.50;;;;;;8286371;28;20023;-79
2023/08/04 13:09:03;;;;;;;1.67;0.77;;;24.60;99.50;;;;;;8301036;28;20509;-79
2023/08/04 13:13:04;;;;;;;1.73;0.65;;;24.40;99.90;;;;;;8220018;28;20022;-79
2023/08/04 13:17:05;;;;;;;3.15;0.70;;;24.60;99.90;;;;;;8284607;28;20130;-79
2023/08/04 13:21:05;;;;;;;2.00;0.77;;;24.80;98.70;;;;;;8214298;28;20031;-79
2023/08/04 13:25:06;;;;;;;1.38;0.50;;;24.80;98.80;;;;;;8279595;28;20049;-79
2023/08/04 13:29:07;;;;;;;0.68;0.60;;;24.60;98.90;;;;;;8278592;28;20035;-79
2023/08/04 13:33:07;;;;;;;1.85;0.70;;;24.40;99.90;;;;;;8296061;28;20030;-79
2023/08/04 13:37:08;;;;;;;1.98;0.70;;;24.80;97.70;;;;;;8288170;28;20080;-79
2023/08/04 13:41:08;;;;;;;1.10;0.70;;;25.50;98.20;;;;;;8302365;28;20521;-79
2023/08/04 13:45:09;;;;;;;1.98;0.60;;;27.40;97.70;;;;;;8285380;28;20027;-80
2023/08/04 13:49:10;;;;;;;3.22;0.75;;;28.10;92.80;;;;;;8216196;28;20084;-80
2023/08/04 13:53:10;;;;;;;1.23;0.60;;;27.50;93.70;;;;;;8287390;28;20035;-79
2023/08/04 13:57:11;;;;;;;1.10;0.50;;;26.50;93.10;;;;;;8277408;28;20027;-80
2023/08/04 14:01:11;;;;;;;1.50;0.80;;;26.00;94.60;;;;;;8273952;28;20035;-79
2023/08/04 14:05:12;;;;;;;1.45;0.65;;;25.40;97.90;;;;;;8280128;28;20075;-79
2023/08/04 14:09:12;;;;;;;1.95;0.63;;;24.70;96.60;;;;;;8211593;28;20413;-79
2023/08/04 14:13:14;;;;;;;2.03;0.70;;;24.30;98.20;;;;;;8277682;28;20026;-79
2023/08/04 14:17:14;;;;;;;1.33;0.75;;;23.80;98.40;;;;;;8286555;28;20073;-79
2023/08/04 14:21:15;;;;;;;2.60;0.70;;;23.30;99.90;;;;;;8281904;28;20019;-79
2023/08/04 14:25:15;;;;;;;2.85;0.95;;;23.30;99.90;;;;;;8219735;28;20157;-79
2023/08/04 14:29:17;;;;;;;1.10;0.70;;;23.60;99.90;;;;;;8285234;28;20483;-80
2023/08/04 14:33:17;;;;;;;1.63;0.68;;;24.60;97.70;;;;;;8286731;28;20062;-80
2023/08/04 14:37:18;;;;;;;1.52;0.40;;;25.20;95.40;;;;;;8283873;28;20039;-79
2023/08/04 14:41:18;;;;;;;6.63;0.80;;;25.40;95.20;;;;;;8286348;28;20033;-81
2023/08/04 14:45:19;;;;;;;1.00;0.57;;;26.00;97.10;;;;;;8213927;28;20030;-79
2023/08/04 14:49:25;;;;;;;1.55;0.60;;;25.90;96.00;;;;;;8219037;28;20110;-78
2023/08/04 14:53:26;;;;;;;1.50;0.57;;;25.60;93.80;;;;;;8284859;28;20073;-79
2023/08/04 14:57:26;;;;;;;2.78;0.55;;;25.10;98.40;;;;;;8289584;28;20023;-79
2023/08/04 15:01:27;;;;;;;0.38;0.32;;;23.30;99.40;;;;;;8228222;28;20238;-79
2023/08/04 15:05:33;;;;;;;1.23;0.70;;;22.00;99.90;;;;;;8296642;28;20035;-78
2023/08/04 15:09:34;;;;;;;1.55;0.45;;;21.60;99.90;;;;;;8289210;28;20035;-79
2023/08/04 15:13:35;;;;;;;3.88;0.70;;;20.90;99.90;;;;;;8285762;28;21107;-79
2023/08/04 15:17:37;;;;;;;1.15;0.70;;;20.50;99.90;;;;;;8222727;28;20031;-79
2023/08/04 15:21:37;;;;;;;1.92;0.50;;;19.90;99.90;;;;;;8286839;28;20035;-78
2023/08/04 15:25:38;;;;;;;2.20;0.60;;;19.50;99.90;;;;;;8299184;28;20509;-78
2023/08/04 15:29:38;;;;;;;1.75;0.63;;;19.20;99.90;;;;;;8290788;28;20077;-78
2023/08/04 15:33:39;;;;;;;1.17;0.68;;;18.90;99.90;;;;;;8287967;28;20169;-78
2023/08/04 15:37:39;;;;;;;1.08;0.60;;;18.60;99.90;;;;;;8293028;28;21088;-78
2023/08/04 15:41:40;;;;;;;1.30;0.70;;;18.40;99.90;;;;;;8228473;28;20104;-79
2023/08/04 15:45:40;;;;;;;1.38;0.50;;;18.30;99.90;;;;;;8230164;28;20034;-79
2023/08/04 15:49:42;;;;;;;3.40;0.70;;;18.00;99.90;;;;;;8226801;28;20076;-78
2023/08/04 15:53:46;;;;;;;1.23;0.68;;;17.90;99.90;;;;;;8233136;28;20398;-78
2023/08/04 15:57:47;;;;;;;1.48;0.70;;;17.60;99.90;;;;;;8296232;28;20027;-78
2023/08/04 16:01:47;;;;;;;1.92;0.90;;;17.30;99.90;;;;;;8295654;28;20506;-78
2023/08/04 16:05:56;;;;;;;4.25;0.98;;;17.00;99.90;;;;;;8228412;28;20026;-77
2023/08/04 16:09:56;;;;;;;1.15;0.77;;;16.60;99.90;;;;;;8290488;28;20036;-76
2023/08/04 16:13:57;;;;;;;2.00;0.90;;;16.40;99.90;;;;;;8276732;28;20023;-77
2023/08/04 16:17:57;;;;;;;2.13;0.90;;;16.20;99.90;;;;;;8275507;28;20030;-77
2023/08/04 16:21:58;;;;;;;1.90;1.13;;;16.10;99.90;;;;;;8224121;28;20034;-78
2023/08/04 16:25:58;;;;;;;2.13;1.15;;;16.00;99.90;;;;;;8288675;28;20611;-79
2023/08/04 16:29:59;;;;;;;1.50;1.08;;;15.90;99.90;;;;;;8293097;28;20109;-79
2023/08/04 16:34:01;;;;;;;2.90;1.30;;;16.00;99.90;;;;;;8283194;28;20023;-79
2023/08/04 16:38:02;;;;;;;2.53;1.10;;;16.00;99.90;;;;;;8297384;28;20130;-80
2023/08/04 16:42:03;;;;;;;2.75;1.02;;;16.00;99.90;;;;;;8289283;28;20027;-79
2023/08/04 16:46:04;;;;;;;2.03;1.10;;;15.80;99.90;;;;;;8279820;28;20034;-80
2023/08/04 16:50:05;;;;;;;4.28;1.35;;;15.80;99.90;;;;;;8220280;28;20023;-80
2023/08/04 16:54:06;;;;;;;3.35;1.20;;;15.90;99.90;;;;;;8285796;28;20039;-80
2023/08/04 16:58:07;;;;;;;3.28;1.40;;;15.80;99.90;;;;;;8217223;28;20028;-76
2023/08/04 17:02:07;;;;;;;1.45;1.10;;;15.80;99.90;;;;;;8288981;28;20019;-76
2023/08/04 17:06:14;;;;;;;0.90;0.75;;;15.70;99.90;;;;;;8279296;28;20038;-77
2023/08/04 17:10:15;;;;;;;1.55;0.80;;;15.70;99.90;;;;;;8280428;28;20039;-76
2023/08/04 17:14:15;;;;;;;2.05;1.15;;;15.70;99.90;;;;;;8278014;28;20062;-76
2023/08/04 17:18:16;;;;;;;2.45;1.00;;;15.70;99.90;;;;;;8287452;28;20027;-78
2023/08/04 17:22:16;;;;;;;1.23;0.80;;;15.70;99.90;;;;;;8203545;28;20031;-76
2023/08/04 17:26:17;;;;;;;2.13;0.95;;;15.80;99.90;;;;;;8293447;28;20035;-77
2023/08/04 17:30:17;;;;;;;0.70;0.70;;;15.70;99.90;;;;;;8207435;28;20039;-77
2023/08/04 17:34:18;;;;;;;1.70;1.00;;;15.80;99.90;;;;;;8294461;28;20100;-77
2023/08/04 17:38:19;;;;;;;2.03;0.75;;;15.80;99.90;;;;;;8281515;28;20091;-77
2023/08/04 17:42:19;;;;;;;2.83;1.13;;;15.90;99.90;;;;;;8296403;28;20403;-76
2023/08/04 17:46:20;;;;;;;3.55;1.10;;;15.90;99.90;;;;;;8283893;28;20084;-76
2023/08/04 17:50:20;;;;;;;3.08;0.93;;;15.80;99.90;;;;;;8221834;28;20034;-75
2023/08/04 17:54:21;;;;;;;3.53;0.98;;;15.80;99.90;;;;;;8288457;28;20122;-76
2023/08/04 17:58:21;;;;;;;1.75;0.90;;;15.70;99.90;;;;;;8203402;28;20042;-77
2023/08/04 18:02:23;;;;;;;1.25;1.00;;;15.60;99.90;;;;;;8214337;28;20035;-75
2023/08/04 18:06:24;;;;;;;1.70;1.00;;;15.60;99.90;;;;;;8210596;28;20035;-75
2023/08/04 18:10:24;;;;;;;1.20;1.10;;;15.50;99.90;;;;;;8290951;28;20131;-76
2023/08/04 18:14:25;;;;;;;1.13;1.00;;;15.50;99.90;;;;;;8306006;28;20035;-77
2023/08/04 18:18:25;;;;;;;1.27;1.02;;;15.40;99.90;;;;;;8259082;28;20054;-76
2023/08/04 18:22:26;;;;;;;2.10;1.13;;;15.30;99.90;;;;;;8203784;28;20027;-76
2023/08/04 18:26:26;;;;;;;1.63;1.00;;;15.20;99.90;;;;;;8274917;28;20023;-76
2023/08/04 18:30:27;;;;;;;1.90;1.70;;;15.20;99.90;;;;;;8213248;28;20103;-77
2023/08/04 18:34:27;;;;;;;2.03;1.83;;;15.10;99.90;;;;;;8283262;28;20038;-77
2023/08/04 18:38:28;;;;;;;2.75;1.48;;;15.30;99.90;;;;;;8285528;28;20375;-77
2023/08/04 18:42:28;;;;;;;2.75;1.80;;;15.40;99.90;;;;;;8282497;28;20026;-77
2023/08/04 18:46:29;;;;;;;2.88;1.73;;;15.30;99.90;;;;;;8281905;28;20027;-77
2023/08/04 18:50:30;;;;;;;4.43;1.50;;;15.40;99.90;;;;;;8277809;28;20027;-77
2023/08/04 18:54:30;;;;;;;4.80;1.80;;;15.50;99.90;;;;;;8281865;28;20239;-78
2023/08/04 18:58:31;;;;;;;2.22;1.48;;;15.30;99.90;;;;;;8278015;28;20518;-77
2023/08/04 19:02:32;;;;;;;2.22;1.48;;;15.40;99.90;;;;;;8280451;28;20049;-77
2023/08/04 19:06:32;;;;;;;2.10;1.50;;;15.40;99.90;;;;;;8263330;28;20039;-77
2023/08/04 19:10:33;;;;;;;2.33;1.60;;;15.30;99.90;;;;;;8278304;28;20122;-77
2023/08/04 19:14:33;;;;;;;3.00;1.70;;;15.20;99.90;;;;;;8213224;28;20031;-77
2023/08/04 19:18:34;;;;;;;2.00;1.50;;;15.30;99.90;;;;;;8203433;28;20049;-77
2023/08/04 19:22:35;;;;;;;1.88;1.10;;;15.70;99.90;;;;;;8216188;28;20033;-77
2023/08/04 19:26:36;;;;;;;5.05;1.35;;;15.70;99.90;;;;;;8289516;28;20027;-77
2023/08/04 19:30:36;;;;;;;1.58;1.17;;;15.60;99.90;;;;;;8284186;28;20058;-77
2023/08/04 19:34:37;;;;;;;1.60;0.93;;;15.70;99.90;;;;;;8286764;28;20063;-77
2023/08/04 19:38:38;;;;;;;2.90;1.38;;;15.40;99.90;;;;;;8284793;28;20017;-76
2023/08/04 19:42:38;;;;;;;1.70;1.33;;;15.30;99.90;;;;;;8294636;28;20024;-76
2023/08/04 19:46:39;;;;;;;2.72;1.50;;;15.30;99.90;;;;;;8212224;28;20491;-77
2023/08/04 19:50:39;;;;;;;3.42;1.50;;;15.30;99.90;;;;;;8222316;28;20038;-77
2023/08/04 19:54:41;;;;;;;2.90;1.50;;;15.20;99.90;;;;;;8216305;28;20031;-77
2023/08/04 19:58:41;;;;;;;2.35;1.50;;;15.20;99.90;;;;;;8281480;28;20062;-77
2023/08/04 20:02:42;;;;;;;1.35;1.00;;;15.20;99.90;;;;;;8290104;28;20023;-77
2023/08/04 20:06:42;;;;;;;1.73;1.30;;;15.10;99.90;;;;;;8281303;28;20035;-77
2023/08/04 20:10:43;;;;;;;3.25;1.30;;;15.00;99.90;;;;;;8218555;28;20035;-77
2023/08/04 20:14:47;;;;;;;1.60;1.05;;;14.90;99.90;;;;;;8223985;28;20100;-77
2023/08/04 20:18:48;;;;;;;1.13;1.02;;;15.00;99.90;;;;;;8224405;28;20046;-77
2023/08/04 20:22:49;;;;;;;2.28;1.65;;;15.00;99.90;;;;;;8226481;28;20019;-79
2023/08/04 20:26:50;;;;;;;1.15;1.05;;;14.90;99.90;;;;;;8291585;28;20114;-77
2023/08/04 20:30:56;;;;;;;1.80;1.35;;;15.00;99.90;;;;;;8267545;28;20287;-77
2023/08/04 20:34:57;;;;;;;6.05;2.70;;;15.20;99.90;;;;;;8221134;28;20542;-77
2023/08/04 20:38:57;;;;;;;2.83;1.25;;;15.30;99.90;;;;;;8283476;28;20110;-77
2023/08/04 20:42:58;;;;;;;2.58;1.23;;;15.40;99.90;;;;;;8286447;28;20031;-77
2023/08/04 20:46:58;;;;;;;2.15;1.30;;;15.80;99.90;;;;;;8288412;28;20022;-77
2023/08/04 20:50:59;;;;;;;4.38;1.23;;;15.40;99.90;;;;;;8304677;28;20046;-78
2023/08/04 20:54:59;;;;;;;4.00;1.40;;;15.60;99.90;;;;;;8293967;28;20053;-77
2023/08/04 20:59:00;;;;;;;2.83;1.20;;;15.50;99.90;;;;;;8223229;28;20023;-78
2023/08/04 21:03:00;;;;;;;3.22;1.50;;;15.40;99.90;;;;;;8291393;28;20038;-78